Bataysk — UBXE3 — position and weather

sailwx.info

Track history (hours):
 
Tides and Currents Weather Stations Pressure Air Temp Water Temp Dewpoint Dewpoint Depression Visibility Wind Speed Wind Dir Waves Ship Positions

Bataysk

Last reported at 2017-Aug-21 02:51 UTC. Time now 2017-Aug-21 15:48 UTC.
Position N 45°31' E 036°46'.

Length 130 m; draft 2.7 m.

Type: Cargo ship. MMSI: 273347320.

Date/timePositionNaut miles runAvg speedWind from/ knotsBaromVisibWave heightAir tempDewpointWater temp
2017-Aug-21 02:51N 45°31' E 036°46'3 6.3
2017-Aug-21 02:23N 45°29' E 036°43'2 6.3
2017-Aug-21 02:01N 45°27' E 036°42'3 6.6
2017-Aug-21 01:31N 45°24' E 036°41'3 6.2
2017-Aug-21 01:01N 45°21' E 036°38'4 7.5
2017-Aug-21 00:31N 45°19' E 036°34'4 6.6
2017-Aug-20 23:55N 45°17' E 036°29'3 6.7
2017-Aug-20 23:27N 45°14' E 036°29'4 6.7
2017-Aug-20 22:53N 45°11' E 036°30'2 5.2
2017-Aug-20 22:29N 45°09' E 036°32'1 0.4
2017-Aug-20 21:09N 45°09' E 036°33'0 0.1
2017-Aug-20 20:42N 45°09' E 036°33'0 0.1
2017-Aug-20 20:30N 45°09' E 036°33'0 0.0
2017-Aug-20 20:00N 45°09' E 036°33'0 0.0
2017-Aug-20 19:24N 45°09' E 036°33'0 0.0
2017-Aug-20 18:52N 45°09' E 036°33'0 0.0
2017-Aug-20 18:28N 45°09' E 036°33'0 0.0
2017-Aug-20 17:19N 45°09' E 036°33'0 0.2
2017-Aug-20 16:58N 45°09' E 036°33'0 0.2
2017-Aug-20 16:16N 45°09' E 036°33'0 0.2
2017-Aug-20 15:55N 45°09' E 036°33'0 0.0
2017-Aug-20 14:25N 45°09' E 036°33'0 0.0
2017-Aug-20 13:34N 45°09' E 036°33'0 0.1
2017-Aug-20 13:28N 45°09' E 036°33'0 0.0
2017-Aug-20 12:31N 45°09' E 036°33'0 0.0
2017-Aug-20 10:13N 45°09' E 036°33'0 0.0
2017-Aug-20 09:58N 45°09' E 036°33'0 0.0
2017-Aug-20 09:28N 45°09' E 036°33'0 0.1
2017-Aug-20 08:55N 45°09' E 036°33'0 0.0
2017-Aug-20 08:25N 45°09' E 036°33'0 0.0
2017-Aug-20 00:40N 45°09' E 036°33'0 0.0
2017-Aug-20 00:16N 45°09' E 036°33'0 0.0
2017-Aug-19 23:43N 45°09' E 036°33'0 0.0
2017-Aug-19 22:25N 45°09' E 036°33'0 0.0
2017-Aug-19 21:58N 45°09' E 036°33'0 0.0
2017-Aug-19 21:07N 45°09' E 036°33'0 0.0
2017-Aug-19 20:58N 45°09' E 036°33'0 0.0
2017-Aug-19 20:22N 45°09' E 036°33'0 0.0
2017-Aug-19 19:04N 45°09' E 036°33'0 0.0
2017-Aug-19 18:55N 45°09' E 036°33'0 0.1
2017-Aug-19 18:19N 45°09' E 036°33'0 0.1
2017-Aug-19 16:46N 45°09' E 036°33'0 0.6
2017-Aug-19 16:23N 45°09' E 036°33'0 0.3
2017-Aug-19 14:52N 45°09' E 036°33'0 0.0
2017-Aug-19 13:28N 45°09' E 036°33'0 0.0
2017-Aug-19 13:01N 45°09' E 036°33'0 0.0
2017-Aug-19 12:28N 45°09' E 036°33'0 0.0
2017-Aug-19 11:55N 45°09' E 036°33'0 0.0
2017-Aug-19 11:31N 45°09' E 036°33'0 0.0
2017-Aug-19 11:01N 45°09' E 036°33'0 0.0
2017-Aug-19 10:28N 45°09' E 036°33'0 0.0
2017-Aug-19 10:01N 45°09' E 036°33'0 0.0
2017-Aug-19 09:31N 45°09' E 036°33'0 0.0
2017-Aug-19 08:19N 45°09' E 036°33'0 0.0
2017-Aug-19 08:01N 45°09' E 036°33'0 0.0
2017-Aug-19 07:31N 45°09' E 036°33'0 0.0
2017-Aug-19 06:58N 45°09' E 036°33'0 0.0
2017-Aug-19 06:30N 45°09' E 036°33'0 0.0
2017-Aug-19 06:00N 45°09' E 036°33'0 0.0
2017-Aug-19 05:30N 45°09' E 036°33'0 0.0
2017-Aug-19 05:00N 45°09' E 036°33'0 0.0
2017-Aug-19 04:31N 45°09' E 036°33'0 0.0
2017-Aug-19 03:59N 45°09' E 036°33'1 1.7
2017-Aug-19 03:29N 45°09' E 036°32'3 5.7
2017-Aug-19 03:01N 45°10' E 036°29'3 5.5
2017-Aug-19 02:30N 45°13' E 036°28'3 5.7
2017-Aug-19 02:01N 45°16' E 036°28'3 5.1
2017-Aug-19 01:26N 45°18' E 036°30'2 5.2
2017-Aug-19 01:00N 45°19' E 036°33'3 5.2
2017-Aug-19 00:31N 45°20' E 036°37'3 5.1
2017-Aug-19 00:01N 45°22' E 036°40'3 5.7
2017-Aug-18 23:30N 45°25' E 036°41'3 5.2
2017-Aug-18 23:00N 45°27' E 036°40'2 4.3
2017-Aug-18 22:31N 45°28' E 036°37'0 0.0
2017-Aug-18 13:29N 45°29' E 036°37'0 0.0
2017-Aug-18 11:08N 45°29' E 036°37'0 0.0
2017-Aug-18 10:56N 45°29' E 036°37'0 0.0
2017-Aug-18 10:23N 45°29' E 036°37'0 0.0
2017-Aug-18 03:02N 45°29' E 036°37'0 0.1
2017-Aug-18 02:57N 45°29' E 036°37'0 0.2
2017-Aug-18 01:52N 45°28' E 036°37'1 3.7
2017-Aug-18 01:30N 45°29' E 036°39'3 6.0
2017-Aug-18 01:00N 45°30' E 036°43'  
2017-Aug-14 12:32N 45°30' E 036°44'0 6.9
2017-Aug-14 12:30N 45°30' E 036°44'3 6.9
2017-Aug-14 12:00N 45°27' E 036°42'4 7.0
2017-Aug-14 11:30N 45°23' E 036°41'3 6.6
2017-Aug-14 11:00N 45°21' E 036°38'4 7.3
2017-Aug-14 10:30N 45°19' E 036°33'4 6.6
2017-Aug-14 09:58N 45°17' E 036°29'3 7.0
2017-Aug-14 09:29N 45°14' E 036°29'3 1.3
2017-Aug-14 07:19N 45°11' E 036°30'1 1.8
2017-Aug-14 06:54N 45°11' E 036°29'4 0.3
2017-Aug-13 15:07N 45°09' E 036°33'0 0.4
2017-Aug-13 14:56N 45°09' E 036°33'4 5.3
2017-Aug-13 14:13N 45°10' E 036°29'1 5.6
2017-Aug-13 13:59N 45°12' E 036°28'3 6.2
2017-Aug-13 13:29N 45°15' E 036°28'3 6.0
2017-Aug-13 13:00N 45°18' E 036°29'3 5.8
2017-Aug-13 12:31N 45°19' E 036°32'3 6.1
2017-Aug-13 12:01N 45°20' E 036°36'3 5.8
2017-Aug-13 11:31N 45°22' E 036°40'3 5.4
2017-Aug-13 11:01N 45°25' E 036°41'2 4.2
2017-Aug-13 10:30N 45°27' E 036°42'2 4.7
2017-Aug-13 10:00N 45°29' E 036°43'3 5.9
2017-Aug-13 09:26N 45°30' E 036°47'2 0.1
2017-Aug-12 16:42N 45°31' E 036°51'0 0.0
2017-Aug-12 16:30N 45°31' E 036°51'1 1.2
2017-Aug-12 15:55N 45°31' E 036°50'2 5.3
2017-Aug-12 15:30N 45°33' E 036°48'  
Track history (hours):
 
Tides and Currents Weather Stations Pressure Air Temp Water Temp Dewpoint Dewpoint Depression Visibility Wind Speed Wind Dir Waves Ship Positions

Bataysk

Last reported at 2017-Aug-21 02:51 UTC. Time now 2017-Aug-21 15:48 UTC.
Position N 45°31' E 036°46'.

Length 130 m; draft 2.7 m.

Type: Cargo ship. MMSI: 273347320.

Date/timePositionNaut miles runAvg speedWind from/ knotsBaromVisibWave heightAir tempDewpointWater temp
2017-Aug-21 02:51N 45°31' E 036°46'3 6.3
2017-Aug-21 02:23N 45°29' E 036°43'2 6.3
2017-Aug-21 02:01N 45°27' E 036°42'3 6.6
2017-Aug-21 01:31N 45°24' E 036°41'3 6.2
2017-Aug-21 01:01N 45°21' E 036°38'4 7.5
2017-Aug-21 00:31N 45°19' E 036°34'4 6.6
2017-Aug-20 23:55N 45°17' E 036°29'3 6.7
2017-Aug-20 23:27N 45°14' E 036°29'4 6.7
2017-Aug-20 22:53N 45°11' E 036°30'2 5.2
2017-Aug-20 22:29N 45°09' E 036°32'1 0.4
2017-Aug-20 21:09N 45°09' E 036°33'0 0.1
2017-Aug-20 20:42N 45°09' E 036°33'0 0.1
2017-Aug-20 20:30N 45°09' E 036°33'0 0.0
2017-Aug-20 20:00N 45°09' E 036°33'0 0.0
2017-Aug-20 19:24N 45°09' E 036°33'0 0.0
2017-Aug-20 18:52N 45°09' E 036°33'0 0.0
2017-Aug-20 18:28N 45°09' E 036°33'0 0.0
2017-Aug-20 17:19N 45°09' E 036°33'0 0.2
2017-Aug-20 16:58N 45°09' E 036°33'0 0.2
2017-Aug-20 16:16N 45°09' E 036°33'0 0.2
2017-Aug-20 15:55N 45°09' E 036°33'0 0.0
2017-Aug-20 14:25N 45°09' E 036°33'0 0.0
2017-Aug-20 13:34N 45°09' E 036°33'0 0.1
2017-Aug-20 13:28N 45°09' E 036°33'0 0.0
2017-Aug-20 12:31N 45°09' E 036°33'0 0.0
2017-Aug-20 10:13N 45°09' E 036°33'0 0.0
2017-Aug-20 09:58N 45°09' E 036°33'0 0.0
2017-Aug-20 09:28N 45°09' E 036°33'0 0.1
2017-Aug-20 08:55N 45°09' E 036°33'0 0.0
2017-Aug-20 08:25N 45°09' E 036°33'0 0.0
2017-Aug-20 00:40N 45°09' E 036°33'0 0.0
2017-Aug-20 00:16N 45°09' E 036°33'0 0.0
2017-Aug-19 23:43N 45°09' E 036°33'0 0.0
2017-Aug-19 22:25N 45°09' E 036°33'0 0.0
2017-Aug-19 21:58N 45°09' E 036°33'0 0.0
2017-Aug-19 21:07N 45°09' E 036°33'0 0.0
2017-Aug-19 20:58N 45°09' E 036°33'0 0.0
2017-Aug-19 20:22N 45°09' E 036°33'0 0.0
2017-Aug-19 19:04N 45°09' E 036°33'0 0.0
2017-Aug-19 18:55N 45°09' E 036°33'0 0.1
2017-Aug-19 18:19N 45°09' E 036°33'0 0.1
2017-Aug-19 16:46N 45°09' E 036°33'0 0.6
2017-Aug-19 16:23N 45°09' E 036°33'0 0.3
2017-Aug-19 14:52N 45°09' E 036°33'0 0.0
2017-Aug-19 13:28N 45°09' E 036°33'0 0.0
2017-Aug-19 13:01N 45°09' E 036°33'0 0.0
2017-Aug-19 12:28N 45°09' E 036°33'0 0.0
2017-Aug-19 11:55N 45°09' E 036°33'0 0.0
2017-Aug-19 11:31N 45°09' E 036°33'0 0.0
2017-Aug-19 11:01N 45°09' E 036°33'0 0.0
2017-Aug-19 10:28N 45°09' E 036°33'0 0.0
2017-Aug-19 10:01N 45°09' E 036°33'0 0.0
2017-Aug-19 09:31N 45°09' E 036°33'0 0.0
2017-Aug-19 08:19N 45°09' E 036°33'0 0.0
2017-Aug-19 08:01N 45°09' E 036°33'0 0.0
2017-Aug-19 07:31N 45°09' E 036°33'0 0.0
2017-Aug-19 06:58N 45°09' E 036°33'0 0.0
2017-Aug-19 06:30N 45°09' E 036°33'0 0.0
2017-Aug-19 06:00N 45°09' E 036°33'0 0.0
2017-Aug-19 05:30N 45°09' E 036°33'0 0.0
2017-Aug-19 05:00N 45°09' E 036°33'0 0.0
2017-Aug-19 04:31N 45°09' E 036°33'0 0.0
2017-Aug-19 03:59N 45°09' E 036°33'1 1.7
2017-Aug-19 03:29N 45°09' E 036°32'3 5.7
2017-Aug-19 03:01N 45°10' E 036°29'3 5.5
2017-Aug-19 02:30N 45°13' E 036°28'3 5.7
2017-Aug-19 02:01N 45°16' E 036°28'3 5.1
2017-Aug-19 01:26N 45°18' E 036°30'2 5.2
2017-Aug-19 01:00N 45°19' E 036°33'3 5.2
2017-Aug-19 00:31N 45°20' E 036°37'3 5.1
2017-Aug-19 00:01N 45°22' E 036°40'3 5.7
2017-Aug-18 23:30N 45°25' E 036°41'3 5.2
2017-Aug-18 23:00N 45°27' E 036°40'2 4.3
2017-Aug-18 22:31N 45°28' E 036°37'0 0.0
2017-Aug-18 13:29N 45°29' E 036°37'0 0.0
2017-Aug-18 11:08N 45°29' E 036°37'0 0.0
2017-Aug-18 10:56N 45°29' E 036°37'0 0.0
2017-Aug-18 10:23N 45°29' E 036°37'0 0.0
2017-Aug-18 03:02N 45°29' E 036°37'0 0.1
2017-Aug-18 02:57N 45°29' E 036°37'0 0.2
2017-Aug-18 01:52N 45°28' E 036°37'1 3.7
2017-Aug-18 01:30N 45°29' E 036°39'3 6.0
2017-Aug-18 01:00N 45°30' E 036°43'  
2017-Aug-14 12:32N 45°30' E 036°44'0 6.9
2017-Aug-14 12:30N 45°30' E 036°44'3 6.9
2017-Aug-14 12:00N 45°27' E 036°42'4 7.0
2017-Aug-14 11:30N 45°23' E 036°41'3 6.6
2017-Aug-14 11:00N 45°21' E 036°38'4 7.3
2017-Aug-14 10:30N 45°19' E 036°33'4 6.6
2017-Aug-14 09:58N 45°17' E 036°29'3 7.0
2017-Aug-14 09:29N 45°14' E 036°29'3 1.3
2017-Aug-14 07:19N 45°11' E 036°30'1 1.8
2017-Aug-14 06:54N 45°11' E 036°29'4 0.3
2017-Aug-13 15:07N 45°09' E 036°33'0 0.4
2017-Aug-13 14:56N 45°09' E 036°33'4 5.3
2017-Aug-13 14:13N 45°10' E 036°29'1 5.6
2017-Aug-13 13:59N 45°12' E 036°28'3 6.2
2017-Aug-13 13:29N 45°15' E 036°28'3 6.0
2017-Aug-13 13:00N 45°18' E 036°29'3 5.8
2017-Aug-13 12:31N 45°19' E 036°32'3 6.1
2017-Aug-13 12:01N 45°20' E 036°36'3 5.8
2017-Aug-13 11:31N 45°22' E 036°40'3 5.4
2017-Aug-13 11:01N 45°25' E 036°41'2 4.2
2017-Aug-13 10:30N 45°27' E 036°42'2 4.7
2017-Aug-13 10:00N 45°29' E 036°43'3 5.9
2017-Aug-13 09:26N 45°30' E 036°47'2 0.1
2017-Aug-12 16:42N 45°31' E 036°51'0 0.0
2017-Aug-12 16:30N 45°31' E 036°51'1 1.2
2017-Aug-12 15:55N 45°31' E 036°50'2 5.3
2017-Aug-12 15:30N 45°33' E 036°48'  

Dump ship's entire track history